Decoded Metar for KCDI ( in ) (IATA:) | Meteo·Mobile Aviation Weather
aviador You're here:

KCDI Decoded Metar

in
Report Time2018-08-19 05:15:00
UTC Time2018-08-19 05:28:21
Flight Rules mvfr MVFR
WindCalm
Visibility4828 m
Phenomena:Mist
Clouds:N/A
CeilingNone
Temp18°C
Dew Point18°C (100% RH)
QNH1014 hPa
Raw Report
KCDI 190515Z AUTO 00000KT 3SM BR CLR 18/18 A2995 RMK AO2
T01770179=

Extra information for KCDI:More info

Social comments